West Rushville, Ohio
Current Conditions -  °F | °C
As of 4:53 PM on Monday 24 Nov 2014 (Local Time) from KLHQ Reporting Station
Broken Clouds Broken Clouds  
Wind Chill:   Ceiling: 3900
Heat Index:   Visibility: 10mi
Dew Point:   Wind: 18mph
Humidity: 68%   Direction: 260°W
Pressure: 29.7"   Gusts: 29mph
Location:  39.76°N, 82.45°W
Report Text: KLHQ 242153Z AUTO 26016G25KT 10SM BKN039 08/03 A2970 RMK AO2 PK WND 25028/2120 SLP055 T00830028
Loading
Personal Weather Stations






























Interactive Weather Map New forecast layout! Learn more

10-Day Weather Forecast

Advertisements
Track Severe Weather on mobile